Terminal Aerodrome Forecast
Issued by NWS

Current Version | Previous Version | Graphics & Text | Print | Product List | Glossary On
Versions: 1 2 3 4 5 6 7 8 9 10 11 12 13 14 15 16 17 18 19 20 21 22
000
FTUS41 KRLX 231700
TAFCKB
TAF
KCKB 231724Z 2318/2418 14007KT P6SM SCT140
     FM232100 16009G16KT P6SM BKN140
     FM240200 14006KT 6SM -RA BR OVC080
     FM240500 15010G18KT 5SM -RA BR OVC060
     FM240600 16012G22KT P6SM OVC050
     FM240900 20011G18KT P6SM BKN050
     FM241500 19014G25KT P6SM SCT150=

USA.gov is the U.S. government's official web portal to all federal, state and local government web resources and services.